sensor_id;sensor_type;location;lat;lon;timestamp;P1;durP1;ratioP1;P2;durP2;ratioP2
23222;SDS011;11780;13.904;100.620;2023-03-03T00:00:09;306.35;;;276.02;;
23222;SDS011;11780;13.904;100.620;2023-03-03T00:02:57;442.35;;;409.88;;
23222;SDS011;11780;13.904;100.620;2023-03-03T00:05:31;385.70;;;355.70;;
23222;SDS011;11780;13.904;100.620;2023-03-03T00:08:02;446.00;;;411.83;;
23222;SDS011;11780;13.904;100.620;2023-03-03T00:13:02;471.00;;;436.95;;
23222;SDS011;11780;13.904;100.620;2023-03-03T00:15:34;466.92;;;432.40;;
23222;SDS011;11780;13.904;100.620;2023-03-03T00:18:11;483.58;;;450.42;;
23222;SDS011;11780;13.904;100.620;2023-03-03T00:26:45;508.27;;;473.77;;
23222;SDS011;11780;13.904;100.620;2023-03-03T00:29:57;559.05;;;525.97;;
23222;SDS011;11780;13.904;100.620;2023-03-03T00:32:41;518.72;;;485.73;;
23222;SDS011;11780;13.904;100.620;2023-03-03T00:35:24;558.50;;;525.93;;
23222;SDS011;11780;13.904;100.620;2023-03-03T00:38:22;506.50;;;471.30;;
23222;SDS011;11780;13.904;100.620;2023-03-03T00:40:52;526.27;;;492.47;;
23222;SDS011;11780;13.904;100.620;2023-03-03T00:43:23;559.53;;;524.70;;
23222;SDS011;11780;13.904;100.620;2023-03-03T00:45:57;517.03;;;484.13;;
23222;SDS011;11780;13.904;100.620;2023-03-03T00:48:28;555.58;;;522.75;;
23222;SDS011;11780;13.904;100.620;2023-03-03T00:51:00;555.42;;;522.03;;
23222;SDS011;11780;13.904;100.620;2023-03-03T00:53:43;480.77;;;448.77;;
23222;SDS011;11780;13.904;100.620;2023-03-03T00:56:13;453.55;;;421.67;;
23222;SDS011;11780;13.904;100.620;2023-03-03T01:01:18;339.60;;;309.17;;
23222;SDS011;11780;13.904;100.620;2023-03-03T01:04:04;425.02;;;393.45;;
23222;SDS011;11780;13.904;100.620;2023-03-03T01:06:34;483.80;;;452.05;;
23222;SDS011;11780;13.904;100.620;2023-03-03T01:09:04;528.58;;;496.33;;
23222;SDS011;11780;13.904;100.620;2023-03-03T01:11:34;366.02;;;336.83;;
23222;SDS011;11780;13.904;100.620;2023-03-03T01:14:05;424.10;;;392.77;;
23222;SDS011;11780;13.904;100.620;2023-03-03T01:16:54;377.80;;;347.00;;
23222;SDS011;11780;13.904;100.620;2023-03-03T01:19:24;424.90;;;394.42;;
23222;SDS011;11780;13.904;100.620;2023-03-03T01:21:54;359.48;;;330.67;;
23222;SDS011;11780;13.904;100.620;2023-03-03T01:24:27;356.30;;;325.98;;
23222;SDS011;11780;13.904;100.620;2023-03-03T01:26:57;362.55;;;332.33;;
23222;SDS011;11780;13.904;100.620;2023-03-03T01:29:27;387.75;;;357.33;;
23222;SDS011;11780;13.904;100.620;2023-03-03T01:31:57;327.77;;;298.58;;
23222;SDS011;11780;13.904;100.620;2023-03-03T01:34:28;346.20;;;315.20;;
23222;SDS011;11780;13.904;100.620;2023-03-03T01:36:58;333.50;;;304.25;;
23222;SDS011;11780;13.904;100.620;2023-03-03T01:39:29;310.53;;;281.43;;
23222;SDS011;11780;13.904;100.620;2023-03-03T01:42:02;307.80;;;279.42;;
23222;SDS011;11780;13.904;100.620;2023-03-03T01:44:32;298.00;;;269.38;;
23222;SDS011;11780;13.904;100.620;2023-03-03T01:47:06;301.58;;;273.08;;
23222;SDS011;11780;13.904;100.620;2023-03-03T01:49:57;306.63;;;278.27;;
23222;SDS011;11780;13.904;100.620;2023-03-03T01:52:33;314.83;;;285.17;;
23222;SDS011;11780;13.904;100.620;2023-03-03T01:55:28;317.52;;;287.80;;
23222;SDS011;11780;13.904;100.620;2023-03-03T01:58:06;304.00;;;275.42;;
23222;SDS011;11780;13.904;100.620;2023-03-03T02:01:03;296.73;;;268.80;;
23222;SDS011;11780;13.904;100.620;2023-03-03T02:03:58;121.00;;;107.63;;
23222;SDS011;11780;13.904;100.620;2023-03-03T02:06:31;54.38;;;32.83;;
23222;SDS011;11780;13.904;100.620;2023-03-03T02:12:04;52.10;;;32.47;;
23222;SDS011;11780;13.904;100.620;2023-03-03T02:14:36;55.47;;;34.58;;
23222;SDS011;11780;13.904;100.620;2023-03-03T02:17:06;56.47;;;40.60;;
23222;SDS011;11780;13.904;100.620;2023-03-03T02:23:12;67.43;;;60.30;;
23222;SDS011;11780;13.904;100.620;2023-03-03T02:28:30;114.35;;;104.57;;
23222;SDS011;11780;13.904;100.620;2023-03-03T02:31:06;115.78;;;106.90;;
23222;SDS011;11780;13.904;100.620;2023-03-03T02:33:43;158.38;;;146.48;;
23222;SDS011;11780;13.904;100.620;2023-03-03T02:36:19;181.93;;;167.80;;
23222;SDS011;11780;13.904;100.620;2023-03-03T02:44:49;111.55;;;102.00;;
23222;SDS011;11780;13.904;100.620;2023-03-03T02:47:19;97.15;;;88.35;;
23222;SDS011;11780;13.904;100.620;2023-03-03T02:50:23;119.72;;;110.03;;
23222;SDS011;11780;13.904;100.620;2023-03-03T02:52:54;495.33;;;459.40;;
23222;SDS011;11780;13.904;100.620;2023-03-03T02:55:24;565.42;;;529.95;;
23222;SDS011;11780;13.904;100.620;2023-03-03T02:57:54;557.25;;;522.67;;
23222;SDS011;11780;13.904;100.620;2023-03-03T03:00:24;553.47;;;519.10;;
23222;SDS011;11780;13.904;100.620;2023-03-03T03:02:54;534.33;;;499.92;;
23222;SDS011;11780;13.904;100.620;2023-03-03T03:05:25;554.13;;;520.53;;
23222;SDS011;11780;13.904;100.620;2023-03-03T03:07:55;553.43;;;520.50;;
23222;SDS011;11780;13.904;100.620;2023-03-03T03:10:48;450.77;;;420.65;;
23222;SDS011;11780;13.904;100.620;2023-03-03T03:13:20;554.45;;;520.67;;
23222;SDS011;11780;13.904;100.620;2023-03-03T03:16:06;484.67;;;451.30;;
23222;SDS011;11780;13.904;100.620;2023-03-03T03:18:55;556.33;;;522.47;;
23222;SDS011;11780;13.904;100.620;2023-03-03T03:23:57;515.55;;;480.63;;
23222;SDS011;11780;13.904;100.620;2023-03-03T03:26:28;493.85;;;459.40;;
23222;SDS011;11780;13.904;100.620;2023-03-03T03:28:59;553.37;;;520.67;;
23222;SDS011;11780;13.904;100.620;2023-03-03T03:31:30;451.77;;;417.08;;
23222;SDS011;11780;13.904;100.620;2023-03-03T03:34:02;483.77;;;449.23;;
23222;SDS011;11780;13.904;100.620;2023-03-03T03:36:50;502.45;;;466.92;;
23222;SDS011;11780;13.904;100.620;2023-03-03T03:39:22;500.35;;;465.20;;
23222;SDS011;11780;13.904;100.620;2023-03-03T03:41:52;537.37;;;501.80;;
23222;SDS011;11780;13.904;100.620;2023-03-03T03:44:41;547.70;;;510.75;;
23222;SDS011;11780;13.904;100.620;2023-03-03T03:47:11;549.67;;;513.08;;
23222;SDS011;11780;13.904;100.620;2023-03-03T03:49:58;518.03;;;481.73;;
23222;SDS011;11780;13.904;100.620;2023-03-03T03:52:28;530.40;;;493.40;;
23222;SDS011;11780;13.904;100.620;2023-03-03T03:54:58;489.98;;;454.90;;
23222;SDS011;11780;13.904;100.620;2023-03-03T03:57:28;568.08;;;531.47;;
23222;SDS011;11780;13.904;100.620;2023-03-03T03:59:59;545.20;;;511.55;;
23222;SDS011;11780;13.904;100.620;2023-03-03T04:02:39;519.33;;;484.55;;
23222;SDS011;11780;13.904;100.620;2023-03-03T04:05:12;552.53;;;518.72;;
23222;SDS011;11780;13.904;100.620;2023-03-03T04:07:43;526.63;;;493.67;;
23222;SDS011;11780;13.904;100.620;2023-03-03T04:10:16;511.48;;;477.80;;
23222;SDS011;11780;13.904;100.620;2023-03-03T04:12:47;464.27;;;432.05;;
23222;SDS011;11780;13.904;100.620;2023-03-03T04:15:37;381.10;;;351.30;;
23222;SDS011;11780;13.904;100.620;2023-03-03T04:18:07;491.38;;;455.33;;
23222;SDS011;11780;13.904;100.620;2023-03-03T04:20:52;571.28;;;535.65;;
23222;SDS011;11780;13.904;100.620;2023-03-03T04:23:24;561.33;;;526.45;;
23222;SDS011;11780;13.904;100.620;2023-03-03T04:25:55;504.53;;;471.00;;
23222;SDS011;11780;13.904;100.620;2023-03-03T04:28:25;525.58;;;491.15;;
23222;SDS011;11780;13.904;100.620;2023-03-03T04:30:57;522.72;;;488.70;;
23222;SDS011;11780;13.904;100.620;2023-03-03T04:33:29;493.13;;;460.08;;
23222;SDS011;11780;13.904;100.620;2023-03-03T04:36:18;495.27;;;461.48;;
23222;SDS011;11780;13.904;100.620;2023-03-03T04:39:08;499.92;;;466.30;;
23222;SDS011;11780;13.904;100.620;2023-03-03T04:41:54;494.42;;;460.80;;
23222;SDS011;11780;13.904;100.620;2023-03-03T04:44:40;544.42;;;510.17;;
23222;SDS011;11780;13.904;100.620;2023-03-03T04:47:12;473.80;;;441.83;;
23222;SDS011;11780;13.904;100.620;2023-03-03T04:49:43;514.03;;;480.30;;
23222;SDS011;11780;13.904;100.620;2023-03-03T04:52:13;457.75;;;425.90;;
23222;SDS011;11780;13.904;100.620;2023-03-03T04:54:43;429.63;;;398.45;;
23222;SDS011;11780;13.904;100.620;2023-03-03T04:57:15;418.30;;;387.63;;
23222;SDS011;11780;13.904;100.620;2023-03-03T04:59:45;359.70;;;330.45;;
23222;SDS011;11780;13.904;100.620;2023-03-03T05:02:16;340.92;;;312.40;;
23222;SDS011;11780;13.904;100.620;2023-03-03T05:04:47;336.20;;;308.10;;
23222;SDS011;11780;13.904;100.620;2023-03-03T05:07:17;401.33;;;370.80;;
23222;SDS011;11780;13.904;100.620;2023-03-03T05:10:07;407.58;;;377.30;;
23222;SDS011;11780;13.904;100.620;2023-03-03T05:12:53;432.10;;;399.75;;
23222;SDS011;11780;13.904;100.620;2023-03-03T05:15:22;421.67;;;389.90;;
23222;SDS011;11780;13.904;100.620;2023-03-03T05:17:53;373.50;;;343.98;;
23222;SDS011;11780;13.904;100.620;2023-03-03T05:22:54;329.40;;;301.38;;
23222;SDS011;11780;13.904;100.620;2023-03-03T05:25:46;353.77;;;324.65;;
23222;SDS011;11780;13.904;100.620;2023-03-03T05:28:17;348.00;;;318.60;;
23222;SDS011;11780;13.904;100.620;2023-03-03T05:31:03;324.15;;;295.58;;
23222;SDS011;11780;13.904;100.620;2023-03-03T05:33:52;481.30;;;448.52;;
23222;SDS011;11780;13.904;100.620;2023-03-03T05:36:24;423.33;;;391.75;;
23222;SDS011;11780;13.904;100.620;2023-03-03T05:38:54;401.13;;;370.95;;
23222;SDS011;11780;13.904;100.620;2023-03-03T05:41:24;341.80;;;313.43;;
23222;SDS011;11780;13.904;100.620;2023-03-03T05:44:14;333.92;;;305.38;;
23222;SDS011;11780;13.904;100.620;2023-03-03T05:46:46;318.77;;;290.27;;
23222;SDS011;11780;13.904;100.620;2023-03-03T05:49:16;330.15;;;301.73;;
23222;SDS011;11780;13.904;100.620;2023-03-03T05:51:47;341.27;;;311.98;;
23222;SDS011;11780;13.904;100.620;2023-03-03T05:54:51;345.40;;;316.17;;
23222;SDS011;11780;13.904;100.620;2023-03-03T05:57:21;515.70;;;481.52;;
23222;SDS011;11780;13.904;100.620;2023-03-03T05:59:51;332.07;;;304.20;;
23222;SDS011;11780;13.904;100.620;2023-03-03T06:02:21;299.77;;;271.25;;
23222;SDS011;11780;13.904;100.620;2023-03-03T06:04:52;300.50;;;272.13;;
23222;SDS011;11780;13.904;100.620;2023-03-03T06:07:22;298.55;;;270.65;;
23222;SDS011;11780;13.904;100.620;2023-03-03T06:09:52;285.58;;;258.08;;
23222;SDS011;11780;13.904;100.620;2023-03-03T06:12:23;293.40;;;264.63;;
23222;SDS011;11780;13.904;100.620;2023-03-03T06:14:53;293.50;;;265.50;;
23222;SDS011;11780;13.904;100.620;2023-03-03T06:17:23;296.83;;;268.67;;
23222;SDS011;11780;13.904;100.620;2023-03-03T06:20:12;294.27;;;266.08;;
23222;SDS011;11780;13.904;100.620;2023-03-03T06:22:42;290.98;;;263.17;;
23222;SDS011;11780;13.904;100.620;2023-03-03T06:25:12;293.42;;;265.92;;
23222;SDS011;11780;13.904;100.620;2023-03-03T06:27:42;292.45;;;265.58;;
23222;SDS011;11780;13.904;100.620;2023-03-03T06:30:31;291.52;;;264.63;;
23222;SDS011;11780;13.904;100.620;2023-03-03T06:33:01;281.63;;;254.57;;
23222;SDS011;11780;13.904;100.620;2023-03-03T06:35:31;286.25;;;259.45;;
23222;SDS011;11780;13.904;100.620;2023-03-03T06:38:01;289.67;;;262.27;;
23222;SDS011;11780;13.904;100.620;2023-03-03T06:40:33;286.40;;;258.85;;
23222;SDS011;11780;13.904;100.620;2023-03-03T06:43:03;290.27;;;263.23;;
23222;SDS011;11780;13.904;100.620;2023-03-03T06:45:33;290.48;;;263.83;;
23222;SDS011;11780;13.904;100.620;2023-03-03T06:48:03;286.17;;;259.45;;
23222;SDS011;11780;13.904;100.620;2023-03-03T06:50:34;291.85;;;264.23;;
23222;SDS011;11780;13.904;100.620;2023-03-03T06:53:10;278.45;;;252.15;;
23222;SDS011;11780;13.904;100.620;2023-03-03T06:55:58;276.67;;;250.55;;
23222;SDS011;11780;13.904;100.620;2023-03-03T07:01:00;274.85;;;248.77;;
23222;SDS011;11780;13.904;100.620;2023-03-03T07:03:33;286.23;;;259.00;;
23222;SDS011;11780;13.904;100.620;2023-03-03T07:06:23;289.08;;;262.52;;
23222;SDS011;11780;13.904;100.620;2023-03-03T07:09:20;281.67;;;255.38;;
23222;SDS011;11780;13.904;100.620;2023-03-03T07:12:05;280.15;;;253.20;;
23222;SDS011;11780;13.904;100.620;2023-03-03T07:18:20;278.67;;;252.40;;
23222;SDS011;11780;13.904;100.620;2023-03-03T07:20:51;276.17;;;250.63;;
23222;SDS011;11780;13.904;100.620;2023-03-03T07:23:26;281.35;;;254.52;;
23222;SDS011;11780;13.904;100.620;2023-03-03T07:26:29;270.58;;;244.20;;
23222;SDS011;11780;13.904;100.620;2023-03-03T07:29:24;277.20;;;250.82;;
23222;SDS011;11780;13.904;100.620;2023-03-03T07:31:59;280.35;;;254.13;;
23222;SDS011;11780;13.904;100.620;2023-03-03T07:34:48;271.08;;;245.60;;
23222;SDS011;11780;13.904;100.620;2023-03-03T07:37:41;282.08;;;255.55;;
23222;SDS011;11780;13.904;100.620;2023-03-03T07:40:30;293.35;;;265.88;;
23222;SDS011;11780;13.904;100.620;2023-03-03T07:48:53;275.77;;;249.55;;
23222;SDS011;11780;13.904;100.620;2023-03-03T07:51:27;287.55;;;260.08;;
23222;SDS011;11780;13.904;100.620;2023-03-03T07:54:23;278.70;;;252.43;;
23222;SDS011;11780;13.904;100.620;2023-03-03T08:11:31;263.13;;;237.65;;
23222;SDS011;11780;13.904;100.620;2023-03-03T08:14:01;262.10;;;236.10;;
23222;SDS011;11780;13.904;100.620;2023-03-03T08:16:55;264.10;;;238.50;;
23222;SDS011;11780;13.904;100.620;2023-03-03T08:19:28;268.00;;;242.05;;
23222;SDS011;11780;13.904;100.620;2023-03-03T08:22:21;265.65;;;239.50;;
23222;SDS011;11780;13.904;100.620;2023-03-03T08:24:55;270.85;;;244.52;;
23222;SDS011;11780;13.904;100.620;2023-03-03T08:27:25;260.08;;;234.73;;
23222;SDS011;11780;13.904;100.620;2023-03-03T08:29:56;272.08;;;246.10;;
23222;SDS011;11780;13.904;100.620;2023-03-03T08:32:26;263.38;;;238.32;;
23222;SDS011;11780;13.904;100.620;2023-03-03T08:34:56;263.35;;;237.77;;
23222;SDS011;11780;13.904;100.620;2023-03-03T08:37:26;281.52;;;254.32;;
23222;SDS011;11780;13.904;100.620;2023-03-03T08:39:56;265.83;;;239.55;;
23222;SDS011;11780;13.904;100.620;2023-03-03T08:42:26;269.30;;;243.35;;
23222;SDS011;11780;13.904;100.620;2023-03-03T08:45:16;252.70;;;228.43;;
23222;SDS011;11780;13.904;100.620;2023-03-03T08:48:05;257.77;;;232.35;;
23222;SDS011;11780;13.904;100.620;2023-03-03T08:50:36;256.23;;;230.90;;
23222;SDS011;11780;13.904;100.620;2023-03-03T08:53:06;263.30;;;238.20;;
23222;SDS011;11780;13.904;100.620;2023-03-03T08:55:52;266.08;;;239.95;;
23222;SDS011;11780;13.904;100.620;2023-03-03T08:58:22;265.35;;;239.25;;
23222;SDS011;11780;13.904;100.620;2023-03-03T09:01:02;264.70;;;239.52;;
23222;SDS011;11780;13.904;100.620;2023-03-03T09:03:33;255.60;;;230.60;;
23222;SDS011;11780;13.904;100.620;2023-03-03T09:06:02;253.88;;;229.00;;
23222;SDS011;11780;13.904;100.620;2023-03-03T09:08:33;273.50;;;247.23;;
23222;SDS011;11780;13.904;100.620;2023-03-03T09:11:08;257.27;;;231.15;;
23222;SDS011;11780;13.904;100.620;2023-03-03T09:13:41;250.85;;;225.50;;
23222;SDS011;11780;13.904;100.620;2023-03-03T09:16:12;252.95;;;228.20;;
23222;SDS011;11780;13.904;100.620;2023-03-03T09:18:43;259.90;;;234.65;;
23222;SDS011;11780;13.904;100.620;2023-03-03T09:21:25;255.68;;;230.02;;
23222;SDS011;11780;13.904;100.620;2023-03-03T09:24:01;257.90;;;232.63;;
23222;SDS011;11780;13.904;100.620;2023-03-03T09:26:46;249.68;;;224.93;;
23222;SDS011;11780;13.904;100.620;2023-03-03T09:31:57;249.27;;;223.65;;
23222;SDS011;11780;13.904;100.620;2023-03-03T09:37:25;250.57;;;225.50;;
23222;SDS011;11780;13.904;100.620;2023-03-03T09:40:00;152.98;;;136.45;;
23222;SDS011;11780;13.904;100.620;2023-03-03T09:43:03;42.33;;;28.08;;
23222;SDS011;11780;13.904;100.620;2023-03-03T09:46:23;24.77;;;21.57;;
23222;SDS011;11780;13.904;100.620;2023-03-03T09:52:15;23.92;;;21.40;;
23222;SDS011;11780;13.904;100.620;2023-03-03T10:04:23;25.67;;;22.02;;
23222;SDS011;11780;13.904;100.620;2023-03-03T10:10:28;23.25;;;20.95;;
23222;SDS011;11780;13.904;100.620;2023-03-03T10:15:42;29.27;;;23.20;;
23222;SDS011;11780;13.904;100.620;2023-03-03T10:18:41;25.42;;;22.33;;
23222;SDS011;11780;13.904;100.620;2023-03-03T10:21:31;25.10;;;22.48;;
23222;SDS011;11780;13.904;100.620;2023-03-03T10:24:30;26.48;;;23.35;;
23222;SDS011;11780;13.904;100.620;2023-03-03T10:27:04;26.00;;;23.20;;
23222;SDS011;11780;13.904;100.620;2023-03-03T10:32:59;25.92;;;23.25;;
23222;SDS011;11780;13.904;100.620;2023-03-03T10:38:44;25.73;;;22.58;;
23222;SDS011;11780;13.904;100.620;2023-03-03T10:41:27;25.85;;;23.08;;
23222;SDS011;11780;13.904;100.620;2023-03-03T10:47:27;26.80;;;22.67;;
23222;SDS011;11780;13.904;100.620;2023-03-03T10:56:44;25.90;;;22.95;;
23222;SDS011;11780;13.904;100.620;2023-03-03T10:59:47;25.90;;;23.40;;
23222;SDS011;11780;13.904;100.620;2023-03-03T11:08:19;25.67;;;22.83;;
23222;SDS011;11780;13.904;100.620;2023-03-03T11:11:15;29.60;;;24.70;;
23222;SDS011;11780;13.904;100.620;2023-03-03T11:29:07;36.92;;;28.50;;
23222;SDS011;11780;13.904;100.620;2023-03-03T11:37:38;32.67;;;27.13;;
23222;SDS011;11780;13.904;100.620;2023-03-03T11:40:18;31.33;;;26.85;;
23222;SDS011;11780;13.904;100.620;2023-03-03T11:43:10;33.85;;;26.83;;
23222;SDS011;11780;13.904;100.620;2023-03-03T11:46:06;33.60;;;27.58;;
23222;SDS011;11780;13.904;100.620;2023-03-03T11:51:21;31.58;;;25.88;;
23222;SDS011;11780;13.904;100.620;2023-03-03T11:54:21;32.53;;;26.60;;
23222;SDS011;11780;13.904;100.620;2023-03-03T11:56:57;30.35;;;25.52;;
23222;SDS011;11780;13.904;100.620;2023-03-03T12:05:33;34.78;;;27.27;;
23222;SDS011;11780;13.904;100.620;2023-03-03T12:08:33;33.08;;;27.23;;
23222;SDS011;11780;13.904;100.620;2023-03-03T12:17:05;31.10;;;27.00;;
23222;SDS011;11780;13.904;100.620;2023-03-03T12:25:45;34.95;;;28.40;;
23222;SDS011;11780;13.904;100.620;2023-03-03T12:28:29;34.67;;;26.77;;
23222;SDS011;11780;13.904;100.620;2023-03-03T12:31:18;37.63;;;28.80;;
23222;SDS011;11780;13.904;100.620;2023-03-03T12:37:06;32.88;;;27.88;;
23222;SDS011;11780;13.904;100.620;2023-03-03T12:54:06;33.85;;;28.20;;
23222;SDS011;11780;13.904;100.620;2023-03-03T12:56:55;39.25;;;29.77;;
23222;SDS011;11780;13.904;100.620;2023-03-03T13:11:26;42.25;;;33.78;;
23222;SDS011;11780;13.904;100.620;2023-03-03T13:17:24;45.47;;;34.25;;
23222;SDS011;11780;13.904;100.620;2023-03-03T14:05:01;52.20;;;34.72;;
23222;SDS011;11780;13.904;100.620;2023-03-03T14:07:45;47.33;;;32.63;;
23222;SDS011;11780;13.904;100.620;2023-03-03T14:10:32;52.55;;;34.42;;
23222;SDS011;11780;13.904;100.620;2023-03-03T14:25:08;51.42;;;34.15;;
23222;SDS011;11780;13.904;100.620;2023-03-03T14:30:30;56.28;;;34.92;;
23222;SDS011;11780;13.904;100.620;2023-03-03T14:33:22;50.53;;;35.80;;
23222;SDS011;11780;13.904;100.620;2023-03-03T14:36:00;47.28;;;34.72;;
23222;SDS011;11780;13.904;100.620;2023-03-03T14:41:11;52.20;;;35.20;;
23222;SDS011;11780;13.904;100.620;2023-03-03T14:43:45;56.08;;;35.38;;
23222;SDS011;11780;13.904;100.620;2023-03-03T14:46:31;59.42;;;36.75;;
23222;SDS011;11780;13.904;100.620;2023-03-03T14:49:15;49.85;;;35.55;;
23222;SDS011;11780;13.904;100.620;2023-03-03T14:52:10;54.08;;;33.40;;
23222;SDS011;11780;13.904;100.620;2023-03-03T14:54:50;61.63;;;37.15;;
23222;SDS011;11780;13.904;100.620;2023-03-03T15:05:22;49.47;;;33.92;;
23222;SDS011;11780;13.904;100.620;2023-03-03T15:08:13;51.03;;;34.58;;
23222;SDS011;11780;13.904;100.620;2023-03-03T15:14:11;51.35;;;33.58;;
23222;SDS011;11780;13.904;100.620;2023-03-03T15:16:45;57.33;;;33.78;;
23222;SDS011;11780;13.904;100.620;2023-03-03T15:22:09;51.20;;;34.03;;
23222;SDS011;11780;13.904;100.620;2023-03-03T15:25:05;55.13;;;35.53;;
23222;SDS011;11780;13.904;100.620;2023-03-03T15:28:09;62.28;;;36.30;;
23222;SDS011;11780;13.904;100.620;2023-03-03T15:30:47;62.25;;;37.03;;
23222;SDS011;11780;13.904;100.620;2023-03-03T15:36:16;60.72;;;36.10;;
23222;SDS011;11780;13.904;100.620;2023-03-03T15:42:14;49.30;;;34.83;;
23222;SDS011;11780;13.904;100.620;2023-03-03T15:45:20;57.42;;;35.63;;
23222;SDS011;11780;13.904;100.620;2023-03-03T15:51:37;55.95;;;36.45;;
23222;SDS011;11780;13.904;100.620;2023-03-03T16:00:28;59.67;;;38.22;;
23222;SDS011;11780;13.904;100.620;2023-03-03T16:03:13;55.45;;;35.88;;
23222;SDS011;11780;13.904;100.620;2023-03-03T16:09:24;45.53;;;34.72;;
23222;SDS011;11780;13.904;100.620;2023-03-03T16:12:37;57.33;;;38.95;;
23222;SDS011;11780;13.904;100.620;2023-03-03T16:15:44;70.40;;;43.35;;
23222;SDS011;11780;13.904;100.620;2023-03-03T16:21:21;50.00;;;38.53;;
23222;SDS011;11780;13.904;100.620;2023-03-03T16:24:27;49.20;;;38.13;;
23222;SDS011;11780;13.904;100.620;2023-03-03T16:27:05;50.78;;;38.22;;
23222;SDS011;11780;13.904;100.620;2023-03-03T16:41:00;55.58;;;40.60;;
23222;SDS011;11780;13.904;100.620;2023-03-03T16:46:45;55.17;;;39.40;;
23222;SDS011;11780;13.904;100.620;2023-03-03T16:49:36;52.22;;;40.85;;
23222;SDS011;11780;13.904;100.620;2023-03-03T16:52:46;55.60;;;39.28;;
23222;SDS011;11780;13.904;100.620;2023-03-03T16:55:35;47.38;;;39.72;;
23222;SDS011;11780;13.904;100.620;2023-03-03T16:58:35;57.17;;;39.28;;
23222;SDS011;11780;13.904;100.620;2023-03-03T17:04:53;50.03;;;39.95;;
23222;SDS011;11780;13.904;100.620;2023-03-03T17:07:27;52.78;;;39.88;;
23222;SDS011;11780;13.904;100.620;2023-03-03T17:10:20;54.72;;;40.35;;
23222;SDS011;11780;13.904;100.620;2023-03-03T17:16:20;50.05;;;40.00;;
23222;SDS011;11780;13.904;100.620;2023-03-03T17:18:58;55.42;;;40.55;;
23222;SDS011;11780;13.904;100.620;2023-03-03T17:21:44;54.92;;;40.72;;
23222;SDS011;11780;13.904;100.620;2023-03-03T17:24:42;53.17;;;42.42;;
23222;SDS011;11780;13.904;100.620;2023-03-03T17:29:51;56.25;;;43.42;;
23222;SDS011;11780;13.904;100.620;2023-03-03T17:35:20;57.35;;;44.67;;
23222;SDS011;11780;13.904;100.620;2023-03-03T17:47:39;58.05;;;47.03;;
23222;SDS011;11780;13.904;100.620;2023-03-03T17:55:50;60.08;;;48.53;;
23222;SDS011;11780;13.904;100.620;2023-03-03T18:01:56;67.22;;;48.53;;
23222;SDS011;11780;13.904;100.620;2023-03-03T18:10:02;64.05;;;47.40;;
23222;SDS011;11780;13.904;100.620;2023-03-03T18:15:48;61.72;;;49.22;;
23222;SDS011;11780;13.904;100.620;2023-03-03T18:25:00;75.65;;;52.85;;
23222;SDS011;11780;13.904;100.620;2023-03-03T18:27:43;69.70;;;53.15;;
23222;SDS011;11780;13.904;100.620;2023-03-03T18:30:19;59.13;;;51.10;;
23222;SDS011;11780;13.904;100.620;2023-03-03T18:57:12;73.85;;;56.53;;
23222;SDS011;11780;13.904;100.620;2023-03-03T18:59:48;74.07;;;55.28;;
23222;SDS011;11780;13.904;100.620;2023-03-03T19:02:28;74.10;;;54.83;;
23222;SDS011;11780;13.904;100.620;2023-03-03T19:05:22;68.60;;;56.13;;
23222;SDS011;11780;13.904;100.620;2023-03-03T19:16:10;69.32;;;56.15;;
23222;SDS011;11780;13.904;100.620;2023-03-03T19:19:11;69.65;;;52.85;;
23222;SDS011;11780;13.904;100.620;2023-03-03T19:21:46;73.43;;;56.35;;
23222;SDS011;11780;13.904;100.620;2023-03-03T19:36:38;71.97;;;55.95;;
23222;SDS011;11780;13.904;100.620;2023-03-03T19:42:04;74.75;;;55.97;;
23222;SDS011;11780;13.904;100.620;2023-03-03T19:47:49;71.90;;;57.45;;
23222;SDS011;11780;13.904;100.620;2023-03-03T19:53:16;67.97;;;55.88;;
23222;SDS011;11780;13.904;100.620;2023-03-03T20:01:24;76.18;;;54.67;;
23222;SDS011;11780;13.904;100.620;2023-03-03T20:16:44;69.65;;;57.13;;
23222;SDS011;11780;13.904;100.620;2023-03-03T20:19:05;75.18;;;58.58;;
23222;SDS011;11780;13.904;100.620;2023-03-03T20:27:23;70.25;;;57.80;;
23222;SDS011;11780;13.904;100.620;2023-03-03T20:38:22;78.50;;;63.60;;
23222;SDS011;11780;13.904;100.620;2023-03-03T20:41:14;70.75;;;59.22;;
23222;SDS011;11780;13.904;100.620;2023-03-03T20:44:03;80.10;;;63.42;;
23222;SDS011;11780;13.904;100.620;2023-03-03T20:49:27;82.25;;;64.68;;
23222;SDS011;11780;13.904;100.620;2023-03-03T20:57:57;84.85;;;67.30;;
23222;SDS011;11780;13.904;100.620;2023-03-03T21:01:29;86.63;;;68.20;;
23222;SDS011;11780;13.904;100.620;2023-03-03T21:03:49;84.25;;;69.07;;
23222;SDS011;11780;13.904;100.620;2023-03-03T21:06:40;79.97;;;67.22;;
23222;SDS011;11780;13.904;100.620;2023-03-03T21:12:09;84.13;;;66.20;;
23222;SDS011;11780;13.904;100.620;2023-03-03T21:15:06;81.97;;;66.97;;
23222;SDS011;11780;13.904;100.620;2023-03-03T21:17:49;81.05;;;66.10;;
23222;SDS011;11780;13.904;100.620;2023-03-03T21:22:55;80.45;;;63.90;;
23222;SDS011;11780;13.904;100.620;2023-03-03T21:28:19;78.93;;;63.95;;
23222;SDS011;11780;13.904;100.620;2023-03-03T21:33:49;76.22;;;63.55;;
23222;SDS011;11780;13.904;100.620;2023-03-03T21:39:19;72.78;;;62.13;;
23222;SDS011;11780;13.904;100.620;2023-03-03T21:41:54;67.70;;;60.17;;
23222;SDS011;11780;13.904;100.620;2023-03-03T21:47:08;77.78;;;64.30;;
23222;SDS011;11780;13.904;100.620;2023-03-03T21:49:40;74.60;;;63.15;;
23222;SDS011;11780;13.904;100.620;2023-03-03T21:52:12;78.10;;;63.22;;
23222;SDS011;11780;13.904;100.620;2023-03-03T21:54:45;81.80;;;66.05;;
23222;SDS011;11780;13.904;100.620;2023-03-03T21:57:17;75.88;;;63.47;;
23222;SDS011;11780;13.904;100.620;2023-03-03T22:02:17;72.22;;;63.17;;
23222;SDS011;11780;13.904;100.620;2023-03-03T22:05:06;71.43;;;63.55;;
23222;SDS011;11780;13.904;100.620;2023-03-03T22:07:37;77.10;;;64.15;;
23222;SDS011;11780;13.904;100.620;2023-03-03T22:10:07;76.20;;;63.50;;
23222;SDS011;11780;13.904;100.620;2023-03-03T22:12:38;75.85;;;65.20;;
23222;SDS011;11780;13.904;100.620;2023-03-03T22:15:08;75.70;;;63.55;;
23222;SDS011;11780;13.904;100.620;2023-03-03T22:17:38;82.18;;;70.25;;
23222;SDS011;11780;13.904;100.620;2023-03-03T22:20:11;80.93;;;70.13;;